sensor_id;sensor_type;location;lat;lon;timestamp;temperature;humidity
54140;DHT22;40046;53.254;5.900;2022-08-19T00:01:55;15.70;99.90
54140;DHT22;40046;53.254;5.900;2022-08-19T00:04:26;15.70;99.90
54140;DHT22;40046;53.254;5.900;2022-08-19T00:06:54;15.70;99.90
54140;DHT22;40046;53.254;5.900;2022-08-19T00:09:24;15.70;99.90
54140;DHT22;40046;53.254;5.900;2022-08-19T00:11:51;15.60;99.90
54140;DHT22;40046;53.254;5.900;2022-08-19T00:14:21;15.70;99.90
54140;DHT22;40046;53.254;5.900;2022-08-19T00:16:49;15.70;99.90
54140;DHT22;40046;53.254;5.900;2022-08-19T00:19:18;15.60;99.90
54140;DHT22;40046;53.254;5.900;2022-08-19T00:21:46;15.60;99.90
54140;DHT22;40046;53.254;5.900;2022-08-19T00:24:55;15.60;99.90
54140;DHT22;40046;53.254;5.900;2022-08-19T00:27:23;15.60;99.90
54140;DHT22;40046;53.254;5.900;2022-08-19T00:29:49;15.60;99.90
54140;DHT22;40046;53.254;5.900;2022-08-19T00:32:16;15.60;99.90
54140;DHT22;40046;53.254;5.900;2022-08-19T00:34:42;15.60;99.90
54140;DHT22;40046;53.254;5.900;2022-08-19T00:37:09;15.50;99.90
54140;DHT22;40046;53.254;5.900;2022-08-19T00:39:37;15.50;99.90
54140;DHT22;40046;53.254;5.900;2022-08-19T00:42:07;15.50;99.90
54140;DHT22;40046;53.254;5.900;2022-08-19T00:44:34;15.50;99.90
54140;DHT22;40046;53.254;5.900;2022-08-19T00:47:01;15.50;99.90
54140;DHT22;40046;53.254;5.900;2022-08-19T00:49:42;15.50;99.90
54140;DHT22;40046;53.254;5.900;2022-08-19T00:52:23;15.40;99.90
54140;DHT22;40046;53.254;5.900;2022-08-19T00:54:52;15.40;99.90
54140;DHT22;40046;53.254;5.900;2022-08-19T00:57:32;15.40;99.90
54140;DHT22;40046;53.254;5.900;2022-08-19T01:00:01;15.40;99.90
54140;DHT22;40046;53.254;5.900;2022-08-19T01:02:29;15.40;99.90
54140;DHT22;40046;53.254;5.900;2022-08-19T01:04:57;15.40;99.90
54140;DHT22;40046;53.254;5.900;2022-08-19T01:07:25;15.40;99.90
54140;DHT22;40046;53.254;5.900;2022-08-19T01:09:51;15.30;99.90
54140;DHT22;40046;53.254;5.900;2022-08-19T01:12:21;15.30;99.90
54140;DHT22;40046;53.254;5.900;2022-08-19T01:14:47;15.30;99.90
54140;DHT22;40046;53.254;5.900;2022-08-19T01:17:22;15.30;99.90
54140;DHT22;40046;53.254;5.900;2022-08-19T01:19:49;15.20;99.90
54140;DHT22;40046;53.254;5.900;2022-08-19T01:22:26;15.20;99.90
54140;DHT22;40046;53.254;5.900;2022-08-19T01:24:54;15.20;99.90
54140;DHT22;40046;53.254;5.900;2022-08-19T01:27:21;15.20;99.90
54140;DHT22;40046;53.254;5.900;2022-08-19T01:29:47;15.20;99.90
54140;DHT22;40046;53.254;5.900;2022-08-19T01:32:15;15.20;99.90
54140;DHT22;40046;53.254;5.900;2022-08-19T01:34:43;15.20;99.90
54140;DHT22;40046;53.254;5.900;2022-08-19T01:37:13;15.10;99.90
54140;DHT22;40046;53.254;5.900;2022-08-19T01:39:40;15.10;99.90
54140;DHT22;40046;53.254;5.900;2022-08-19T01:42:07;15.10;99.90
54140;DHT22;40046;53.254;5.900;2022-08-19T01:44:39;15.10;99.90
54140;DHT22;40046;53.254;5.900;2022-08-19T01:47:08;15.10;99.90
54140;DHT22;40046;53.254;5.900;2022-08-19T01:49:36;15.10;99.90
54140;DHT22;40046;53.254;5.900;2022-08-19T01:52:04;15.10;99.90
54140;DHT22;40046;53.254;5.900;2022-08-19T01:54:30;15.00;99.90
54140;DHT22;40046;53.254;5.900;2022-08-19T01:57:07;15.00;99.90
54140;DHT22;40046;53.254;5.900;2022-08-19T01:59:34;15.00;99.90
54140;DHT22;40046;53.254;5.900;2022-08-19T02:02:04;15.00;99.90
54140;DHT22;40046;53.254;5.900;2022-08-19T02:04:34;15.00;99.90
54140;DHT22;40046;53.254;5.900;2022-08-19T02:07:02;15.00;99.90
54140;DHT22;40046;53.254;5.900;2022-08-19T02:09:28;14.90;99.90
54140;DHT22;40046;53.254;5.900;2022-08-19T02:11:56;14.90;99.90
54140;DHT22;40046;53.254;5.900;2022-08-19T02:14:23;14.90;99.90
54140;DHT22;40046;53.254;5.900;2022-08-19T02:16:53;14.90;99.90
54140;DHT22;40046;53.254;5.900;2022-08-19T02:19:19;14.90;99.90
54140;DHT22;40046;53.254;5.900;2022-08-19T02:21:45;14.90;99.90
54140;DHT22;40046;53.254;5.900;2022-08-19T02:24:12;14.90;99.90
54140;DHT22;40046;53.254;5.900;2022-08-19T02:26:39;14.90;99.90
54140;DHT22;40046;53.254;5.900;2022-08-19T02:29:08;14.90;99.90
54140;DHT22;40046;53.254;5.900;2022-08-19T02:31:34;14.80;99.90
54140;DHT22;40046;53.254;5.900;2022-08-19T02:34:00;14.80;99.90
54140;DHT22;40046;53.254;5.900;2022-08-19T02:36:27;14.80;99.90
54140;DHT22;40046;53.254;5.900;2022-08-19T02:38:56;14.80;99.90
54140;DHT22;40046;53.254;5.900;2022-08-19T02:41:25;14.80;99.90
54140;DHT22;40046;53.254;5.900;2022-08-19T02:43:54;14.80;99.90
54140;DHT22;40046;53.254;5.900;2022-08-19T02:46:24;14.80;99.90
54140;DHT22;40046;53.254;5.900;2022-08-19T02:48:54;14.70;99.90
54140;DHT22;40046;53.254;5.900;2022-08-19T02:51:24;14.70;99.90
54140;DHT22;40046;53.254;5.900;2022-08-19T02:53:52;14.70;99.90
54140;DHT22;40046;53.254;5.900;2022-08-19T02:56:20;14.70;99.90
54140;DHT22;40046;53.254;5.900;2022-08-19T02:58:48;14.80;99.90
54140;DHT22;40046;53.254;5.900;2022-08-19T03:01:28;14.70;99.90
54140;DHT22;40046;53.254;5.900;2022-08-19T03:03:56;14.70;99.90
54140;DHT22;40046;53.254;5.900;2022-08-19T03:06:23;14.70;99.90
54140;DHT22;40046;53.254;5.900;2022-08-19T03:08:49;14.70;99.90
54140;DHT22;40046;53.254;5.900;2022-08-19T03:11:29;14.70;99.90
54140;DHT22;40046;53.254;5.900;2022-08-19T03:13:56;14.70;99.90
54140;DHT22;40046;53.254;5.900;2022-08-19T03:16:24;14.70;99.90
54140;DHT22;40046;53.254;5.900;2022-08-19T03:18:51;14.70;99.90
54140;DHT22;40046;53.254;5.900;2022-08-19T03:21:22;14.70;99.90
54140;DHT22;40046;53.254;5.900;2022-08-19T03:23:50;14.70;99.90
54140;DHT22;40046;53.254;5.900;2022-08-19T03:26:16;14.80;99.90
54140;DHT22;40046;53.254;5.900;2022-08-19T03:28:45;14.70;99.90
54140;DHT22;40046;53.254;5.900;2022-08-19T03:31:18;14.70;99.90
54140;DHT22;40046;53.254;5.900;2022-08-19T03:33:45;14.80;99.90
54140;DHT22;40046;53.254;5.900;2022-08-19T03:36:20;14.80;99.90
54140;DHT22;40046;53.254;5.900;2022-08-19T03:38:50;14.80;99.90
54140;DHT22;40046;53.254;5.900;2022-08-19T03:41:22;14.70;99.90
54140;DHT22;40046;53.254;5.900;2022-08-19T03:43:48;14.70;99.90
54140;DHT22;40046;53.254;5.900;2022-08-19T03:46:29;14.70;99.90
54140;DHT22;40046;53.254;5.900;2022-08-19T03:48:56;14.70;99.90
54140;DHT22;40046;53.254;5.900;2022-08-19T03:51:35;14.70;99.90
54140;DHT22;40046;53.254;5.900;2022-08-19T03:54:03;14.70;99.90
54140;DHT22;40046;53.254;5.900;2022-08-19T03:56:30;14.70;99.90
54140;DHT22;40046;53.254;5.900;2022-08-19T03:58:57;14.70;99.90
54140;DHT22;40046;53.254;5.900;2022-08-19T04:01:26;14.70;99.90
54140;DHT22;40046;53.254;5.900;2022-08-19T04:03:53;14.70;99.90
54140;DHT22;40046;53.254;5.900;2022-08-19T04:06:25;14.70;99.90
54140;DHT22;40046;53.254;5.900;2022-08-19T04:08:53;14.70;99.90
54140;DHT22;40046;53.254;5.900;2022-08-19T04:11:22;14.70;99.90
54140;DHT22;40046;53.254;5.900;2022-08-19T04:13:50;14.70;99.90
54140;DHT22;40046;53.254;5.900;2022-08-19T04:16:18;14.70;99.90
54140;DHT22;40046;53.254;5.900;2022-08-19T04:18:46;14.70;99.90
54140;DHT22;40046;53.254;5.900;2022-08-19T04:21:20;14.70;99.90
54140;DHT22;40046;53.254;5.900;2022-08-19T04:23:46;14.70;99.90
54140;DHT22;40046;53.254;5.900;2022-08-19T04:26:20;14.70;99.90
54140;DHT22;40046;53.254;5.900;2022-08-19T04:28:47;14.70;99.90
54140;DHT22;40046;53.254;5.900;2022-08-19T04:31:21;14.70;99.90
54140;DHT22;40046;53.254;5.900;2022-08-19T04:33:48;14.70;99.90
54140;DHT22;40046;53.254;5.900;2022-08-19T04:36:28;14.70;99.90
54140;DHT22;40046;53.254;5.900;2022-08-19T04:39:01;14.70;99.90
54140;DHT22;40046;53.254;5.900;2022-08-19T04:41:28;14.80;99.90
54140;DHT22;40046;53.254;5.900;2022-08-19T04:44:12;14.80;99.90
54140;DHT22;40046;53.254;5.900;2022-08-19T04:46:39;14.80;99.90
54140;DHT22;40046;53.254;5.900;2022-08-19T04:49:06;14.80;99.90
54140;DHT22;40046;53.254;5.900;2022-08-19T04:51:33;14.80;99.90
54140;DHT22;40046;53.254;5.900;2022-08-19T04:53:59;14.80;99.90
54140;DHT22;40046;53.254;5.900;2022-08-19T04:56:26;14.80;99.90
54140;DHT22;40046;53.254;5.900;2022-08-19T04:58:53;14.90;99.90
54140;DHT22;40046;53.254;5.900;2022-08-19T05:01:23;14.90;99.90
54140;DHT22;40046;53.254;5.900;2022-08-19T05:03:49;14.90;99.90
54140;DHT22;40046;53.254;5.900;2022-08-19T05:06:18;14.90;99.90
54140;DHT22;40046;53.254;5.900;2022-08-19T05:08:45;14.90;99.90
54140;DHT22;40046;53.254;5.900;2022-08-19T05:11:17;15.00;99.90
54140;DHT22;40046;53.254;5.900;2022-08-19T05:13:44;15.10;99.90
54140;DHT22;40046;53.254;5.900;2022-08-19T05:16:12;15.10;99.90
54140;DHT22;40046;53.254;5.900;2022-08-19T05:18:39;15.10;99.90
54140;DHT22;40046;53.254;5.900;2022-08-19T05:21:24;15.20;99.90
54140;DHT22;40046;53.254;5.900;2022-08-19T05:24:10;15.20;99.90
54140;DHT22;40046;53.254;5.900;2022-08-19T05:26:37;15.30;99.90
54140;DHT22;40046;53.254;5.900;2022-08-19T05:29:04;15.30;99.90
54140;DHT22;40046;53.254;5.900;2022-08-19T05:31:30;15.40;99.90
54140;DHT22;40046;53.254;5.900;2022-08-19T05:33:57;15.50;99.90
54140;DHT22;40046;53.254;5.900;2022-08-19T05:36:25;15.50;99.90
54140;DHT22;40046;53.254;5.900;2022-08-19T05:38:52;15.60;99.90
54140;DHT22;40046;53.254;5.900;2022-08-19T05:41:20;15.70;99.90
54140;DHT22;40046;53.254;5.900;2022-08-19T05:43:46;15.70;99.90
54140;DHT22;40046;53.254;5.900;2022-08-19T05:46:19;15.80;99.90
54140;DHT22;40046;53.254;5.900;2022-08-19T05:48:45;15.90;99.90
54140;DHT22;40046;53.254;5.900;2022-08-19T05:51:11;15.90;99.90
54140;DHT22;40046;53.254;5.900;2022-08-19T05:53:37;16.00;99.90
54140;DHT22;40046;53.254;5.900;2022-08-19T05:56:09;16.00;99.90
54140;DHT22;40046;53.254;5.900;2022-08-19T05:58:36;16.10;99.90
54140;DHT22;40046;53.254;5.900;2022-08-19T06:01:10;16.20;99.90
54140;DHT22;40046;53.254;5.900;2022-08-19T06:03:37;16.30;99.90
54140;DHT22;40046;53.254;5.900;2022-08-19T06:06:09;16.30;99.90
54140;DHT22;40046;53.254;5.900;2022-08-19T06:08:37;16.40;99.90
54140;DHT22;40046;53.254;5.900;2022-08-19T06:13:43;16.50;99.90
54140;DHT22;40046;53.254;5.900;2022-08-19T06:16:12;16.60;99.90
54140;DHT22;40046;53.254;5.900;2022-08-19T06:18:39;16.70;99.90
54140;DHT22;40046;53.254;5.900;2022-08-19T06:21:04;16.80;99.90
54140;DHT22;40046;53.254;5.900;2022-08-19T06:23:30;16.80;99.90
54140;DHT22;40046;53.254;5.900;2022-08-19T06:25:56;16.90;99.90
54140;DHT22;40046;53.254;5.900;2022-08-19T06:28:22;17.00;99.90
54140;DHT22;40046;53.254;5.900;2022-08-19T06:30:49;17.10;99.90
54140;DHT22;40046;53.254;5.900;2022-08-19T06:33:16;17.20;99.90
54140;DHT22;40046;53.254;5.900;2022-08-19T06:35:42;17.30;99.90
54140;DHT22;40046;53.254;5.900;2022-08-19T06:38:08;17.40;99.90
54140;DHT22;40046;53.254;5.900;2022-08-19T06:40:35;17.50;99.90
54140;DHT22;40046;53.254;5.900;2022-08-19T06:43:02;17.60;99.90
54140;DHT22;40046;53.254;5.900;2022-08-19T06:45:28;17.70;99.90
54140;DHT22;40046;53.254;5.900;2022-08-19T06:47:56;17.90;99.90
54140;DHT22;40046;53.254;5.900;2022-08-19T06:50:23;18.00;99.90
54140;DHT22;40046;53.254;5.900;2022-08-19T06:52:48;18.10;99.90
54140;DHT22;40046;53.254;5.900;2022-08-19T06:55:14;18.30;99.90
54140;DHT22;40046;53.254;5.900;2022-08-19T06:57:42;18.40;99.90
54140;DHT22;40046;53.254;5.900;2022-08-19T07:00:08;18.50;99.90
54140;DHT22;40046;53.254;5.900;2022-08-19T07:02:41;18.60;99.90
54140;DHT22;40046;53.254;5.900;2022-08-19T07:05:07;18.70;99.90
54140;DHT22;40046;53.254;5.900;2022-08-19T07:07:33;18.90;99.90
54140;DHT22;40046;53.254;5.900;2022-08-19T07:09:59;18.90;99.90
54140;DHT22;40046;53.254;5.900;2022-08-19T07:12:25;19.00;99.90
54140;DHT22;40046;53.254;5.900;2022-08-19T07:14:52;19.10;99.90
54140;DHT22;40046;53.254;5.900;2022-08-19T07:17:18;19.20;99.90
54140;DHT22;40046;53.254;5.900;2022-08-19T07:19:45;19.30;99.90
54140;DHT22;40046;53.254;5.900;2022-08-19T07:22:11;19.40;99.90
54140;DHT22;40046;53.254;5.900;2022-08-19T07:24:38;19.50;99.90
54140;DHT22;40046;53.254;5.900;2022-08-19T07:27:05;19.50;99.90
54140;DHT22;40046;53.254;5.900;2022-08-19T07:29:33;19.60;99.90
54140;DHT22;40046;53.254;5.900;2022-08-19T07:32:00;19.70;99.90
54140;DHT22;40046;53.254;5.900;2022-08-19T07:34:28;19.80;99.90
54140;DHT22;40046;53.254;5.900;2022-08-19T07:36:55;19.80;99.90
54140;DHT22;40046;53.254;5.900;2022-08-19T07:39:25;19.90;99.90
54140;DHT22;40046;53.254;5.900;2022-08-19T07:41:51;20.00;99.90
54140;DHT22;40046;53.254;5.900;2022-08-19T07:44:18;20.10;99.90
54140;DHT22;40046;53.254;5.900;2022-08-19T07:46:48;20.10;99.90
54140;DHT22;40046;53.254;5.900;2022-08-19T07:49:15;20.20;99.90
54140;DHT22;40046;53.254;5.900;2022-08-19T07:51:51;20.30;99.90
54140;DHT22;40046;53.254;5.900;2022-08-19T07:54:18;20.40;99.90
54140;DHT22;40046;53.254;5.900;2022-08-19T07:56:45;20.50;99.90
54140;DHT22;40046;53.254;5.900;2022-08-19T07:59:11;20.50;99.90
54140;DHT22;40046;53.254;5.900;2022-08-19T08:01:37;20.70;99.90
54140;DHT22;40046;53.254;5.900;2022-08-19T08:04:06;20.70;99.90
54140;DHT22;40046;53.254;5.900;2022-08-19T08:06:52;20.80;99.90
54140;DHT22;40046;53.254;5.900;2022-08-19T08:09:39;20.90;99.90
54140;DHT22;40046;53.254;5.900;2022-08-19T08:12:09;21.00;99.90
54140;DHT22;40046;53.254;5.900;2022-08-19T08:14:42;21.10;99.90
54140;DHT22;40046;53.254;5.900;2022-08-19T08:17:10;21.10;99.90
54140;DHT22;40046;53.254;5.900;2022-08-19T08:19:36;21.20;99.90
54140;DHT22;40046;53.254;5.900;2022-08-19T08:22:03;21.20;99.90
54140;DHT22;40046;53.254;5.900;2022-08-19T08:24:32;21.30;99.90
54140;DHT22;40046;53.254;5.900;2022-08-19T08:26:58;21.30;99.90
54140;DHT22;40046;53.254;5.900;2022-08-19T08:29:29;21.40;99.90
54140;DHT22;40046;53.254;5.900;2022-08-19T08:31:55;21.50;99.90
54140;DHT22;40046;53.254;5.900;2022-08-19T08:34:21;21.60;99.90
54140;DHT22;40046;53.254;5.900;2022-08-19T08:36:48;21.60;99.90
54140;DHT22;40046;53.254;5.900;2022-08-19T08:39:16;21.70;99.90
54140;DHT22;40046;53.254;5.900;2022-08-19T08:42:06;21.80;99.90
54140;DHT22;40046;53.254;5.900;2022-08-19T08:47:36;21.90;99.90
54140;DHT22;40046;53.254;5.900;2022-08-19T08:50:09;22.00;99.90
54140;DHT22;40046;53.254;5.900;2022-08-19T08:52:43;22.10;99.90
54140;DHT22;40046;53.254;5.900;2022-08-19T08:55:16;22.10;99.90
54140;DHT22;40046;53.254;5.900;2022-08-19T09:02:56;22.20;99.90
54140;DHT22;40046;53.254;5.900;2022-08-19T09:05:25;22.30;99.90
54140;DHT22;40046;53.254;5.900;2022-08-19T09:08:57;22.30;99.90
54140;DHT22;40046;53.254;5.900;2022-08-19T09:11:05;22.30;99.90
54140;DHT22;40046;53.254;5.900;2022-08-19T09:14:38;22.40;99.90
54140;DHT22;40046;53.254;5.900;2022-08-19T09:16:38;22.50;99.90
54140;DHT22;40046;53.254;5.900;2022-08-19T09:19:07;22.50;99.90
54140;DHT22;40046;53.254;5.900;2022-08-19T09:21:33;22.50;99.90
54140;DHT22;40046;53.254;5.900;2022-08-19T09:24:03;22.60;99.90
54140;DHT22;40046;53.254;5.900;2022-08-19T09:26:30;22.70;99.90
54140;DHT22;40046;53.254;5.900;2022-08-19T09:28:58;22.80;99.90
54140;DHT22;40046;53.254;5.900;2022-08-19T09:31:27;22.80;99.90
54140;DHT22;40046;53.254;5.900;2022-08-19T09:33:53;22.90;99.90
54140;DHT22;40046;53.254;5.900;2022-08-19T09:36:24;23.00;99.90
54140;DHT22;40046;53.254;5.900;2022-08-19T09:38:52;23.20;99.90
54140;DHT22;40046;53.254;5.900;2022-08-19T09:41:22;23.30;99.90
54140;DHT22;40046;53.254;5.900;2022-08-19T09:43:50;23.40;99.90
54140;DHT22;40046;53.254;5.900;2022-08-19T09:46:20;23.50;99.90
54140;DHT22;40046;53.254;5.900;2022-08-19T09:48:53;23.70;99.90
54140;DHT22;40046;53.254;5.900;2022-08-19T09:51:25;23.80;99.90
54140;DHT22;40046;53.254;5.900;2022-08-19T09:53:53;24.00;99.90
54140;DHT22;40046;53.254;5.900;2022-08-19T09:56:21;24.20;99.90
54140;DHT22;40046;53.254;5.900;2022-08-19T09:58:47;24.20;99.90
54140;DHT22;40046;53.254;5.900;2022-08-19T10:01:19;24.30;99.90
54140;DHT22;40046;53.254;5.900;2022-08-19T10:03:52;24.30;99.90
54140;DHT22;40046;53.254;5.900;2022-08-19T10:06:23;24.30;99.90
54140;DHT22;40046;53.254;5.900;2022-08-19T10:08:50;24.30;99.90
54140;DHT22;40046;53.254;5.900;2022-08-19T10:11:19;24.40;99.90
54140;DHT22;40046;53.254;5.900;2022-08-19T10:13:46;24.40;99.90
54140;DHT22;40046;53.254;5.900;2022-08-19T10:16:16;24.50;99.90
54140;DHT22;40046;53.254;5.900;2022-08-19T10:18:44;24.40;99.90
54140;DHT22;40046;53.254;5.900;2022-08-19T10:21:15;24.50;99.90
54140;DHT22;40046;53.254;5.900;2022-08-19T10:23:44;24.40;99.90
54140;DHT22;40046;53.254;5.900;2022-08-19T10:26:13;24.40;99.90
54140;DHT22;40046;53.254;5.900;2022-08-19T10:28:39;24.50;99.90
54140;DHT22;40046;53.254;5.900;2022-08-19T10:31:08;24.70;99.90
54140;DHT22;40046;53.254;5.900;2022-08-19T10:33:35;24.90;99.90
54140;DHT22;40046;53.254;5.900;2022-08-19T10:36:08;25.00;99.90
54140;DHT22;40046;53.254;5.900;2022-08-19T10:38:37;25.20;99.90
54140;DHT22;40046;53.254;5.900;2022-08-19T10:41:11;25.20;99.90
54140;DHT22;40046;53.254;5.900;2022-08-19T10:43:38;25.10;99.90
54140;DHT22;40046;53.254;5.900;2022-08-19T10:46:10;24.90;99.90
54140;DHT22;40046;53.254;5.900;2022-08-19T10:48:36;24.90;99.90
54140;DHT22;40046;53.254;5.900;2022-08-19T10:51:03;24.70;99.90
54140;DHT22;40046;53.254;5.900;2022-08-19T10:53:49;24.70;99.90
54140;DHT22;40046;53.254;5.900;2022-08-19T10:56:15;24.80;99.90
54140;DHT22;40046;53.254;5.900;2022-08-19T10:59:22;24.90;99.90
54140;DHT22;40046;53.254;5.900;2022-08-19T11:01:50;24.90;99.90
54140;DHT22;40046;53.254;5.900;2022-08-19T11:04:17;25.00;99.90
54140;DHT22;40046;53.254;5.900;2022-08-19T11:06:44;25.00;99.90
54140;DHT22;40046;53.254;5.900;2022-08-19T11:09:23;25.00;99.90
54140;DHT22;40046;53.254;5.900;2022-08-19T11:11:55;25.00;99.90
54140;DHT22;40046;53.254;5.900;2022-08-19T11:14:22;25.00;99.90
54140;DHT22;40046;53.254;5.900;2022-08-19T11:17:04;24.90;99.90
54140;DHT22;40046;53.254;5.900;2022-08-19T11:19:30;24.90;99.90
54140;DHT22;40046;53.254;5.900;2022-08-19T11:21:56;24.90;99.90
54140;DHT22;40046;53.254;5.900;2022-08-19T11:24:24;24.90;99.90
54140;DHT22;40046;53.254;5.900;2022-08-19T11:26:53;24.90;99.90
54140;DHT22;40046;53.254;5.900;2022-08-19T11:29:22;24.80;99.90
54140;DHT22;40046;53.254;5.900;2022-08-19T11:31:51;24.80;99.90
54140;DHT22;40046;53.254;5.900;2022-08-19T11:34:25;24.80;99.90
54140;DHT22;40046;53.254;5.900;2022-08-19T11:36:54;24.80;99.90
54140;DHT22;40046;53.254;5.900;2022-08-19T11:39:23;24.70;99.90
54140;DHT22;40046;53.254;5.900;2022-08-19T11:41:50;24.80;99.90
54140;DHT22;40046;53.254;5.900;2022-08-19T11:44:17;24.90;99.90
54140;DHT22;40046;53.254;5.900;2022-08-19T11:46:44;25.00;99.90
54140;DHT22;40046;53.254;5.900;2022-08-19T11:49:16;25.10;99.90
54140;DHT22;40046;53.254;5.900;2022-08-19T11:51:44;25.10;99.90
54140;DHT22;40046;53.254;5.900;2022-08-19T11:54:12;25.00;99.90
54140;DHT22;40046;53.254;5.900;2022-08-19T11:56:38;25.00;99.90
54140;DHT22;40046;53.254;5.900;2022-08-19T11:59:04;25.10;99.90
54140;DHT22;40046;53.254;5.900;2022-08-19T12:01:30;25.20;99.90
54140;DHT22;40046;53.254;5.900;2022-08-19T12:03:57;25.40;99.90
54140;DHT22;40046;53.254;5.900;2022-08-19T12:06:25;25.50;99.90
54140;DHT22;40046;53.254;5.900;2022-08-19T12:09:02;25.60;99.90
54140;DHT22;40046;53.254;5.900;2022-08-19T12:11:28;25.70;99.90
54140;DHT22;40046;53.254;5.900;2022-08-19T12:13:54;25.70;99.90
54140;DHT22;40046;53.254;5.900;2022-08-19T12:16:25;25.80;99.90
54140;DHT22;40046;53.254;5.900;2022-08-19T12:18:52;25.80;99.90
54140;DHT22;40046;53.254;5.900;2022-08-19T12:21:22;25.80;99.90
54140;DHT22;40046;53.254;5.900;2022-08-19T12:23:49;25.80;99.90
54140;DHT22;40046;53.254;5.900;2022-08-19T12:26:16;25.90;99.90
54140;DHT22;40046;53.254;5.900;2022-08-19T12:28:43;25.90;99.90
54140;DHT22;40046;53.254;5.900;2022-08-19T12:31:10;25.90;99.90
54140;DHT22;40046;53.254;5.900;2022-08-19T12:33:42;25.90;99.90
54140;DHT22;40046;53.254;5.900;2022-08-19T12:36:10;25.90;99.90
54140;DHT22;40046;53.254;5.900;2022-08-19T12:38:40;26.00;99.90
54140;DHT22;40046;53.254;5.900;2022-08-19T12:41:11;26.10;99.90
54140;DHT22;40046;53.254;5.900;2022-08-19T12:43:38;26.20;99.90
54140;DHT22;40046;53.254;5.900;2022-08-19T12:46:05;26.40;99.90
54140;DHT22;40046;53.254;5.900;2022-08-19T12:48:34;26.40;99.90
54140;DHT22;40046;53.254;5.900;2022-08-19T12:51:05;26.40;99.90
54140;DHT22;40046;53.254;5.900;2022-08-19T12:53:31;26.50;99.90
54140;DHT22;40046;53.254;5.900;2022-08-19T12:55:58;26.50;99.90
54140;DHT22;40046;53.254;5.900;2022-08-19T12:58:25;26.40;99.90
54140;DHT22;40046;53.254;5.900;2022-08-19T13:00:51;26.40;99.90
54140;DHT22;40046;53.254;5.900;2022-08-19T13:03:17;26.40;99.90
54140;DHT22;40046;53.254;5.900;2022-08-19T13:05:43;26.40;99.90
54140;DHT22;40046;53.254;5.900;2022-08-19T13:08:09;26.40;99.90
54140;DHT22;40046;53.254;5.900;2022-08-19T13:10:36;26.40;99.90
54140;DHT22;40046;53.254;5.900;2022-08-19T13:13:04;26.40;99.90
54140;DHT22;40046;53.254;5.900;2022-08-19T13:15:34;26.40;99.90
54140;DHT22;40046;53.254;5.900;2022-08-19T13:18:00;26.40;99.90
54140;DHT22;40046;53.254;5.900;2022-08-19T13:20:26;26.40;99.90
54140;DHT22;40046;53.254;5.900;2022-08-19T13:22:53;26.30;99.90
54140;DHT22;40046;53.254;5.900;2022-08-19T13:25:20;26.30;99.90
54140;DHT22;40046;53.254;5.900;2022-08-19T13:27:48;26.30;99.90
54140;DHT22;40046;53.254;5.900;2022-08-19T13:30:15;26.30;99.90
54140;DHT22;40046;53.254;5.900;2022-08-19T13:33:00;26.30;99.90
54140;DHT22;40046;53.254;5.900;2022-08-19T13:35:50;26.30;99.90
54140;DHT22;40046;53.254;5.900;2022-08-19T13:38:21;26.40;99.90
54140;DHT22;40046;53.254;5.900;2022-08-19T13:40:48;26.40;99.90
54140;DHT22;40046;53.254;5.900;2022-08-19T13:43:16;26.50;99.90
54140;DHT22;40046;53.254;5.900;2022-08-19T13:45:43;26.50;99.90
54140;DHT22;40046;53.254;5.900;2022-08-19T13:48:09;26.70;99.90
54140;DHT22;40046;53.254;5.900;2022-08-19T13:50:41;26.90;99.90
54140;DHT22;40046;53.254;5.900;2022-08-19T13:53:09;27.00;99.90
54140;DHT22;40046;53.254;5.900;2022-08-19T13:55:37;27.00;99.90
54140;DHT22;40046;53.254;5.900;2022-08-19T13:58:09;27.00;99.90
54140;DHT22;40046;53.254;5.900;2022-08-19T14:00:43;26.90;99.90
54140;DHT22;40046;53.254;5.900;2022-08-19T14:03:09;26.80;99.90
54140;DHT22;40046;53.254;5.900;2022-08-19T14:05:35;26.70;99.90
54140;DHT22;40046;53.254;5.900;2022-08-19T14:08:00;26.50;99.90
54140;DHT22;40046;53.254;5.900;2022-08-19T14:10:28;26.40;99.90
54140;DHT22;40046;53.254;5.900;2022-08-19T14:12:57;26.30;99.90
54140;DHT22;40046;53.254;5.900;2022-08-19T14:15:24;26.30;99.90
54140;DHT22;40046;53.254;5.900;2022-08-19T14:17:50;26.30;99.90
54140;DHT22;40046;53.254;5.900;2022-08-19T14:20:16;26.30;99.90
54140;DHT22;40046;53.254;5.900;2022-08-19T14:22:43;26.20;99.90
54140;DHT22;40046;53.254;5.900;2022-08-19T14:25:12;26.30;99.90
54140;DHT22;40046;53.254;5.900;2022-08-19T14:27:39;26.40;99.90
54140;DHT22;40046;53.254;5.900;2022-08-19T14:30:08;26.50;99.90
54140;DHT22;40046;53.254;5.900;2022-08-19T14:32:35;26.60;99.90
54140;DHT22;40046;53.254;5.900;2022-08-19T14:35:02;26.70;99.90
54140;DHT22;40046;53.254;5.900;2022-08-19T14:37:27;26.80;99.90
54140;DHT22;40046;53.254;5.900;2022-08-19T14:39:54;26.90;99.90
54140;DHT22;40046;53.254;5.900;2022-08-19T14:42:19;26.90;99.90
54140;DHT22;40046;53.254;5.900;2022-08-19T14:44:45;26.80;99.90
54140;DHT22;40046;53.254;5.900;2022-08-19T14:47:11;26.70;99.90
54140;DHT22;40046;53.254;5.900;2022-08-19T14:49:37;26.50;99.90
54140;DHT22;40046;53.254;5.900;2022-08-19T14:52:05;26.30;99.90
54140;DHT22;40046;53.254;5.900;2022-08-19T14:54:30;26.10;99.90
54140;DHT22;40046;53.254;5.900;2022-08-19T14:56:56;26.00;99.90
54140;DHT22;40046;53.254;5.900;2022-08-19T14:59:23;25.90;99.90
54140;DHT22;40046;53.254;5.900;2022-08-19T15:01:48;25.80;99.90
54140;DHT22;40046;53.254;5.900;2022-08-19T15:04:14;25.80;99.90
54140;DHT22;40046;53.254;5.900;2022-08-19T15:06:40;25.80;99.90
54140;DHT22;40046;53.254;5.900;2022-08-19T15:09:08;25.90;99.90
54140;DHT22;40046;53.254;5.900;2022-08-19T15:11:34;26.00;99.90
54140;DHT22;40046;53.254;5.900;2022-08-19T15:14:00;26.00;99.90
54140;DHT22;40046;53.254;5.900;2022-08-19T15:16:27;26.10;99.90
54140;DHT22;40046;53.254;5.900;2022-08-19T15:18:57;26.10;99.90
54140;DHT22;40046;53.254;5.900;2022-08-19T15:21:25;26.10;99.90
54140;DHT22;40046;53.254;5.900;2022-08-19T15:23:51;26.00;99.90
54140;DHT22;40046;53.254;5.900;2022-08-19T15:26:18;26.00;99.90
54140;DHT22;40046;53.254;5.900;2022-08-19T15:28:45;25.90;99.90
54140;DHT22;40046;53.254;5.900;2022-08-19T15:31:11;25.90;99.90
54140;DHT22;40046;53.254;5.900;2022-08-19T15:33:39;25.90;99.90
54140;DHT22;40046;53.254;5.900;2022-08-19T15:36:07;25.90;99.90
54140;DHT22;40046;53.254;5.900;2022-08-19T15:38:33;25.90;99.90
54140;DHT22;40046;53.254;5.900;2022-08-19T15:41:01;25.90;99.90
54140;DHT22;40046;53.254;5.900;2022-08-19T15:43:47;25.90;99.90
54140;DHT22;40046;53.254;5.900;2022-08-19T15:46:21;25.90;99.90
54140;DHT22;40046;53.254;5.900;2022-08-19T15:48:48;25.80;99.90
54140;DHT22;40046;53.254;5.900;2022-08-19T15:51:14;25.70;99.90
54140;DHT22;40046;53.254;5.900;2022-08-19T15:53:41;25.60;99.90